createdAt,value
2023-04-11T00:02:04.806Z,23.33
2023-04-11T00:04:34.074Z,22.95
2023-04-11T00:07:01.122Z,22.85
2023-04-11T00:09:27.998Z,22.42
2023-04-11T00:11:54.791Z,20.30
2023-04-11T00:14:21.524Z,24.50
2023-04-11T00:16:49.834Z,23.85
2023-04-11T00:19:17.044Z,23.98
2023-04-11T00:21:44.121Z,24.48
2023-04-11T00:24:11.662Z,23.90
2023-04-11T00:26:38.438Z,25.38
2023-04-11T00:29:05.267Z,28.15
2023-04-11T00:31:32.479Z,26.60
2023-04-11T00:33:59.312Z,25.95
2023-04-11T00:36:26.910Z,27.13
2023-04-11T00:38:55.126Z,28.25
2023-04-11T00:41:22.332Z,24.75
2023-04-11T00:43:49.718Z,27.15
2023-04-11T00:46:18.000Z,23.55
2023-04-11T00:48:45.429Z,23.40
2023-04-11T00:51:12.433Z,18.38
2023-04-11T00:53:39.492Z,27.15
2023-04-11T00:56:07.068Z,25.50
2023-04-11T00:58:34.555Z,22.13
2023-04-11T01:01:02.031Z,28.58
2023-04-11T01:03:30.093Z,23.27
2023-04-11T01:05:57.360Z,26.70
2023-04-11T01:08:25.333Z,19.33
2023-04-11T01:10:52.539Z,17.08
2023-04-11T01:13:20.579Z,24.90
2023-04-11T01:15:47.572Z,17.85
2023-04-11T01:18:15.355Z,16.48
2023-04-11T01:20:42.561Z,16.80
2023-04-11T01:23:10.880Z,14.18
2023-04-11T01:25:37.682Z,12.75
2023-04-11T01:28:05.847Z,16.00
2023-04-11T01:30:32.663Z,15.13
2023-04-11T01:32:59.576Z,14.27
2023-04-11T01:35:26.358Z,9.13
2023-04-11T01:37:53.563Z,9.77
2023-04-11T01:40:22.625Z,9.75
2023-04-11T01:42:51.882Z,9.85
2023-04-11T01:45:22.167Z,7.50
2023-04-11T01:47:51.057Z,9.05
2023-04-11T01:50:18.084Z,11.93
2023-04-11T01:52:48.469Z,9.77
2023-04-11T01:55:16.389Z,15.35
2023-04-11T01:57:43.773Z,8.18
2023-04-11T02:00:11.361Z,9.05
2023-04-11T02:02:45.693Z,10.25
2023-04-11T02:05:12.556Z,11.85
2023-04-11T02:07:39.398Z,8.93
2023-04-11T02:10:07.341Z,8.88
2023-04-11T02:12:34.268Z,9.10
2023-04-11T02:15:01.013Z,8.32
2023-04-11T02:17:31.165Z,7.00
2023-04-11T02:19:58.100Z,7.50
2023-04-11T02:22:25.037Z,9.20
2023-04-11T02:24:51.784Z,10.02
2023-04-11T02:27:18.913Z,7.50
2023-04-11T02:29:46.282Z,7.93
2023-04-11T02:32:13.282Z,10.60
2023-04-11T02:34:41.325Z,9.02
2023-04-11T02:37:08.140Z,8.02
2023-04-11T02:39:34.877Z,10.00
2023-04-11T02:42:01.694Z,6.30
2023-04-11T02:44:29.445Z,8.73
2023-04-11T02:46:59.067Z,9.32
2023-04-11T02:49:26.682Z,5.30
2023-04-11T02:51:53.545Z,6.88
2023-04-11T02:54:20.434Z,8.35
2023-04-11T02:56:47.544Z,7.93
2023-04-11T02:59:14.372Z,7.13
2023-04-11T03:01:41.866Z,9.48
2023-04-11T03:04:08.964Z,7.18
2023-04-11T03:06:58.377Z,10.10
2023-04-11T03:09:25.612Z,12.13
2023-04-11T03:11:52.537Z,7.75
2023-04-11T03:14:19.418Z,11.77
2023-04-11T03:16:46.168Z,8.10
2023-04-11T03:19:13.053Z,11.48
2023-04-11T03:21:39.922Z,10.88
2023-04-11T03:24:07.460Z,8.40
2023-04-11T03:26:34.251Z,9.52
2023-04-11T03:29:07.818Z,13.50
2023-04-11T03:31:43.748Z,11.10
2023-04-11T03:34:10.574Z,8.90
2023-04-11T03:36:40.074Z,11.57
2023-04-11T03:39:07.147Z,9.07
2023-04-11T03:41:34.361Z,11.15
2023-04-11T03:44:01.391Z,7.25
2023-04-11T03:46:28.394Z,10.15
2023-04-11T03:48:55.931Z,10.35
2023-04-11T03:51:23.949Z,6.47
2023-04-11T03:54:03.267Z,7.72
2023-04-11T03:56:36.625Z,7.88
2023-04-11T03:59:04.617Z,8.73
2023-04-11T04:01:42.141Z,9.38
2023-04-11T04:04:09.536Z,8.75
2023-04-11T04:06:39.736Z,11.85
2023-04-11T04:09:07.557Z,8.25
2023-04-11T04:11:46.099Z,11.68
2023-04-11T04:14:13.547Z,10.32
2023-04-11T04:16:40.639Z,16.17
2023-04-11T04:19:07.900Z,10.95
2023-04-11T04:21:37.977Z,11.20
2023-04-11T04:24:05.996Z,6.93
2023-04-11T04:26:52.363Z,6.57
2023-04-11T04:29:37.968Z,7.70
2023-04-11T04:32:13.334Z,8.70
2023-04-11T04:34:55.334Z,9.20
2023-04-11T04:37:27.964Z,8.20
2023-04-11T04:40:07.659Z,9.57
2023-04-11T04:42:41.992Z,7.47
2023-04-11T04:45:11.199Z,13.32
2023-04-11T04:47:38.683Z,10.23
2023-04-11T04:50:07.021Z,12.68
2023-04-11T04:52:34.048Z,6.28
2023-04-11T04:55:01.793Z,8.82
2023-04-11T04:57:29.927Z,9.70
2023-04-11T04:59:58.355Z,10.77
2023-04-11T05:02:26.660Z,7.43
2023-04-11T05:04:55.808Z,8.85
2023-04-11T05:07:23.655Z,10.50
2023-04-11T05:09:51.985Z,5.63
2023-04-11T05:12:26.946Z,8.60
2023-04-11T05:14:58.096Z,9.52
2023-04-11T05:17:27.681Z,6.65
2023-04-11T05:19:54.691Z,11.35
2023-04-11T05:22:21.659Z,8.43
2023-04-11T05:24:51.289Z,5.22
2023-04-11T05:27:18.687Z,7.78
2023-04-11T05:29:46.350Z,6.93
2023-04-11T05:32:14.946Z,12.38
2023-04-11T05:34:58.163Z,7.68
2023-04-11T05:37:44.618Z,7.03
2023-04-11T05:40:12.340Z,7.35
2023-04-11T05:42:39.153Z,8.25
2023-04-11T05:45:06.748Z,12.55
2023-04-11T05:47:33.640Z,9.90
2023-04-11T05:50:00.467Z,3.58
2023-04-11T05:52:27.400Z,8.07
2023-04-11T05:54:54.304Z,7.45
2023-04-11T05:57:21.159Z,8.98
2023-04-11T05:59:49.802Z,8.48
2023-04-11T06:02:17.368Z,7.68
2023-04-11T06:04:44.358Z,11.02
2023-04-11T06:07:11.361Z,8.93
2023-04-11T06:09:39.200Z,8.32
2023-04-11T06:12:06.369Z,11.45
2023-04-11T06:14:33.146Z,9.05
2023-04-11T06:17:00.151Z,8.48
2023-04-11T06:19:26.962Z,8.95
2023-04-11T06:21:53.732Z,6.30
2023-04-11T06:24:38.807Z,9.63
2023-04-11T06:27:09.901Z,7.30
2023-04-11T06:29:43.481Z,12.85
2023-04-11T06:32:12.312Z,10.57
2023-04-11T06:34:39.694Z,8.40
2023-04-11T06:37:08.068Z,6.38
2023-04-11T06:39:35.935Z,8.73
2023-04-11T06:42:04.218Z,8.52
2023-04-11T06:44:33.002Z,6.88
2023-04-11T06:46:59.976Z,7.00
2023-04-11T06:49:31.215Z,9.13
2023-04-11T06:51:59.386Z,8.35
2023-04-11T06:54:26.250Z,9.10
2023-04-11T06:56:53.157Z,7.82
2023-04-11T06:59:20.493Z,8.10
2023-04-11T07:01:49.704Z,9.93
2023-04-11T07:04:17.283Z,13.75
2023-04-11T07:06:44.485Z,9.80
2023-04-11T07:09:12.561Z,9.50
2023-04-11T07:11:39.620Z,11.68
2023-04-11T07:14:06.821Z,7.97
2023-04-11T07:16:33.884Z,7.75
2023-04-11T07:19:00.848Z,13.40
2023-04-11T07:21:28.340Z,8.98
2023-04-11T07:23:55.593Z,11.10
2023-04-11T07:26:23.742Z,11.23
2023-04-11T07:28:51.198Z,8.13
2023-04-11T07:31:21.348Z,9.25
2023-04-11T07:33:48.348Z,6.53
2023-04-11T07:36:16.144Z,8.50
2023-04-11T07:38:42.986Z,4.97
2023-04-11T07:41:10.276Z,6.47
2023-04-11T07:43:37.101Z,10.73
2023-04-11T07:46:04.046Z,8.00
2023-04-11T07:48:31.999Z,8.05
2023-04-11T07:50:58.836Z,6.28
2023-04-11T07:53:25.750Z,10.15
2023-04-11T07:55:52.555Z,10.57
2023-04-11T07:58:19.374Z,11.88
2023-04-11T08:00:46.276Z,9.23
2023-04-11T08:03:13.650Z,5.60
2023-04-11T08:05:40.620Z,11.95
2023-04-11T08:08:07.586Z,9.10
2023-04-11T08:10:34.549Z,9.80
2023-04-11T08:13:01.636Z,8.07
2023-04-11T08:15:28.435Z,9.43
2023-04-11T08:17:56.537Z,9.52
2023-04-11T08:20:26.384Z,9.45
2023-04-11T08:22:53.316Z,9.90
2023-04-11T08:25:24.822Z,11.98
2023-04-11T08:27:52.415Z,8.02
2023-04-11T08:30:20.272Z,10.63
2023-04-11T08:32:47.188Z,7.82
2023-04-11T08:35:14.268Z,6.57
2023-04-11T08:37:41.520Z,7.53
2023-04-11T08:40:09.364Z,9.93
2023-04-11T08:42:36.519Z,9.40
2023-04-11T08:45:08.269Z,8.90
2023-04-11T08:47:36.951Z,7.53
2023-04-11T08:50:05.835Z,9.02
2023-04-11T08:52:34.552Z,6.80
2023-04-11T08:55:01.628Z,9.98
2023-04-11T08:57:31.818Z,9.73
2023-04-11T09:00:28.908Z,7.78
2023-04-11T09:03:05.088Z,5.60
2023-04-11T09:05:50.242Z,11.73
2023-04-11T09:08:19.200Z,6.28
2023-04-11T09:10:46.683Z,9.98
2023-04-11T09:13:23.853Z,5.57
2023-04-11T09:16:07.185Z,6.88
2023-04-11T09:18:36.963Z,7.32
2023-04-11T09:21:07.012Z,9.02
2023-04-11T09:23:35.470Z,6.57
2023-04-11T09:26:04.603Z,7.25
2023-04-11T09:28:45.185Z,4.78
2023-04-11T09:31:13.279Z,6.53
2023-04-11T09:33:57.043Z,3.83
2023-04-11T09:36:29.291Z,6.40
2023-04-11T09:38:57.380Z,4.68
2023-04-11T09:41:36.350Z,10.88
2023-04-11T09:44:03.522Z,10.07
2023-04-11T09:46:30.576Z,7.38
2023-04-11T09:48:57.490Z,8.05
2023-04-11T09:51:35.841Z,5.13
2023-04-11T09:54:05.133Z,7.05
2023-04-11T09:56:34.175Z,6.85
2023-04-11T09:59:04.053Z,7.35
2023-04-11T10:01:30.970Z,5.90
2023-04-11T10:03:58.309Z,5.55
2023-04-11T10:06:38.448Z,4.43
2023-04-11T10:09:12.715Z,5.43
2023-04-11T10:11:46.570Z,4.88
2023-04-11T10:14:38.271Z,8.07
2023-04-11T10:17:20.093Z,5.68
2023-04-11T10:19:51.410Z,5.93
2023-04-11T10:22:43.333Z,7.28
2023-04-11T10:25:17.621Z,6.38
2023-04-11T10:27:53.465Z,3.88
2023-04-11T10:30:39.381Z,5.18
2023-04-11T10:33:11.890Z,6.95
2023-04-11T10:36:02.827Z,5.68
2023-04-11T10:38:41.908Z,13.48
2023-04-11T10:41:26.860Z,6.05
2023-04-11T10:44:24.660Z,5.05
2023-04-11T10:46:55.035Z,4.45
2023-04-11T10:49:52.045Z,4.57
2023-04-11T10:52:23.905Z,8.23
2023-04-11T10:54:53.078Z,6.97
2023-04-11T10:57:21.556Z,8.13
2023-04-11T10:59:51.035Z,6.43
2023-04-11T11:02:22.181Z,4.50
2023-04-11T11:04:49.429Z,5.32
2023-04-11T11:07:17.304Z,7.38
2023-04-11T11:09:51.058Z,8.65
2023-04-11T11:12:18.156Z,7.28
2023-04-11T11:14:46.880Z,4.93
2023-04-11T11:17:16.082Z,6.80
2023-04-11T11:19:48.235Z,5.68
2023-04-11T11:22:17.335Z,5.90
2023-04-11T11:24:44.305Z,7.25
2023-04-11T11:27:25.107Z,3.78
2023-04-11T11:29:53.014Z,6.40
2023-04-11T11:32:29.246Z,7.55
2023-04-11T11:34:57.393Z,5.90
2023-04-11T11:37:24.604Z,6.00
2023-04-11T11:39:52.080Z,7.53
2023-04-11T11:42:19.516Z,5.60
2023-04-11T11:44:46.355Z,5.07
2023-04-11T11:47:16.960Z,5.78
2023-04-11T11:49:45.809Z,6.63
2023-04-11T11:52:33.850Z,5.93
2023-04-11T11:55:08.738Z,5.88
2023-04-11T11:57:37.609Z,6.43
2023-04-11T12:00:11.506Z,5.88
2023-04-11T12:02:40.518Z,7.55
2023-04-11T12:05:11.506Z,7.63
2023-04-11T12:07:40.478Z,9.50
2023-04-11T12:10:13.411Z,9.55
2023-04-11T12:12:42.626Z,9.90
2023-04-11T12:15:23.650Z,7.60
2023-04-11T12:17:52.512Z,5.90
2023-04-11T12:20:23.945Z,6.15
2023-04-11T12:22:52.270Z,3.45
2023-04-11T12:25:22.638Z,3.60
2023-04-11T12:27:49.539Z,3.53
2023-04-11T12:30:16.530Z,7.05
2023-04-11T12:32:44.726Z,5.35
2023-04-11T12:35:12.809Z,2.97
2023-04-11T12:37:39.926Z,6.63
2023-04-11T12:40:15.311Z,8.25
2023-04-11T12:42:55.851Z,5.50
2023-04-11T12:45:25.026Z,7.85
2023-04-11T12:47:52.249Z,8.65
2023-04-11T12:50:19.218Z,5.95
2023-04-11T12:52:46.183Z,7.25
2023-04-11T12:55:13.578Z,7.38
2023-04-11T12:57:42.256Z,5.20
2023-04-11T13:00:13.359Z,7.35
2023-04-11T13:02:44.581Z,7.65
2023-04-11T13:05:16.981Z,7.10
2023-04-11T13:07:45.599Z,6.07
2023-04-11T13:10:16.845Z,6.28
2023-04-11T13:12:45.782Z,6.53
2023-04-11T13:15:16.084Z,8.00
2023-04-11T13:17:43.356Z,6.32
2023-04-11T13:20:11.510Z,7.53
2023-04-11T13:22:42.805Z,6.55
2023-04-11T13:25:11.005Z,6.22
2023-04-11T13:27:39.662Z,3.78
2023-04-11T13:30:08.449Z,5.22
2023-04-11T13:32:35.299Z,8.45
2023-04-11T13:35:03.309Z,4.00
2023-04-11T13:37:30.181Z,8.85
2023-04-11T13:39:56.991Z,5.47
2023-04-11T13:42:23.763Z,5.55
2023-04-11T13:44:50.568Z,3.63
2023-04-11T13:47:17.341Z,7.28
2023-04-11T13:49:44.469Z,6.38
2023-04-11T13:52:11.283Z,6.88
2023-04-11T13:54:39.054Z,6.90
2023-04-11T13:57:09.262Z,6.28
2023-04-11T13:59:36.369Z,7.75
2023-04-11T14:02:03.256Z,5.18
2023-04-11T14:04:30.912Z,5.45
2023-04-11T14:06:57.928Z,4.57
2023-04-11T14:09:24.851Z,7.03
2023-04-11T14:11:51.652Z,4.57
2023-04-11T14:14:18.492Z,4.63
2023-04-11T14:16:45.525Z,6.82
2023-04-11T14:19:12.384Z,2.95
2023-04-11T14:21:39.395Z,4.90
2023-04-11T14:24:06.632Z,5.45
2023-04-11T14:26:33.413Z,5.22
2023-04-11T14:29:00.208Z,5.00
2023-04-11T14:31:27.288Z,5.15
2023-04-11T14:33:54.355Z,4.10
2023-04-11T14:36:21.404Z,3.72
2023-04-11T14:38:49.214Z,6.72
2023-04-11T14:41:16.212Z,6.07
2023-04-11T14:43:43.007Z,6.20
2023-04-11T14:46:10.189Z,5.15
2023-04-11T14:48:37.039Z,5.97
2023-04-11T14:51:04.353Z,7.20
2023-04-11T14:53:31.212Z,6.97
2023-04-11T14:55:58.190Z,5.40
2023-04-11T14:58:24.945Z,6.15
2023-04-11T15:00:52.156Z,5.45
2023-04-11T15:03:19.111Z,6.10
2023-04-11T15:05:45.993Z,6.80
2023-04-11T15:08:12.819Z,4.65
2023-04-11T15:10:39.727Z,4.78
2023-04-11T15:13:08.858Z,5.78
2023-04-11T15:15:36.192Z,4.63
2023-04-11T15:18:20.827Z,3.17
2023-04-11T15:20:48.345Z,6.40
2023-04-11T15:23:15.316Z,4.45
2023-04-11T15:25:42.317Z,7.05
2023-04-11T15:28:09.541Z,5.30
2023-04-11T15:30:47.388Z,4.72
2023-04-11T15:33:15.978Z,6.82
2023-04-11T15:35:44.564Z,3.95
2023-04-11T15:38:13.446Z,3.83
2023-04-11T15:40:40.441Z,4.50
2023-04-11T15:43:08.903Z,5.43
2023-04-11T15:45:37.640Z,4.85
2023-04-11T15:48:04.644Z,3.40
2023-04-11T15:50:32.501Z,4.75
2023-04-11T15:52:59.461Z,7.22
2023-04-11T15:55:26.360Z,2.30
2023-04-11T15:57:53.267Z,5.13
2023-04-11T16:00:22.388Z,4.00
2023-04-11T16:02:50.143Z,2.53
2023-04-11T16:05:17.493Z,3.88
2023-04-11T16:07:44.517Z,5.88
2023-04-11T16:10:11.438Z,4.97
2023-04-11T16:12:38.566Z,2.80
2023-04-11T16:15:07.237Z,6.45
2023-04-11T16:17:34.392Z,6.15
2023-04-11T16:20:01.565Z,7.50
2023-04-11T16:22:28.616Z,5.50
2023-04-11T16:24:56.252Z,7.28
2023-04-11T16:27:23.168Z,6.68
2023-04-11T16:29:50.961Z,5.43
2023-04-11T16:32:17.737Z,4.03
2023-04-11T16:34:44.631Z,5.55
2023-04-11T16:37:11.460Z,6.13
2023-04-11T16:39:38.251Z,3.70
2023-04-11T16:42:05.185Z,6.97
2023-04-11T16:44:31.936Z,3.75
2023-04-11T16:46:58.699Z,3.35
2023-04-11T16:49:25.580Z,7.25
2023-04-11T16:51:52.502Z,3.47
2023-04-11T16:54:19.296Z,8.15
2023-04-11T16:56:47.338Z,4.65
2023-04-11T16:59:14.417Z,4.53
2023-04-11T17:01:42.353Z,5.18
2023-04-11T17:04:10.248Z,8.25
2023-04-11T17:06:37.171Z,4.60
2023-04-11T17:09:06.336Z,8.02
2023-04-11T17:11:35.648Z,6.57
2023-04-11T17:14:03.622Z,8.00
2023-04-11T17:16:31.203Z,6.30
2023-04-11T17:18:58.023Z,7.60
2023-04-11T17:21:24.865Z,6.70
2023-04-11T17:23:51.671Z,8.68
2023-04-11T17:26:20.116Z,5.78
2023-04-11T17:28:47.190Z,6.28
2023-04-11T17:31:17.300Z,7.70
2023-04-11T17:33:44.424Z,8.55
2023-04-11T17:36:13.207Z,7.72
2023-04-11T17:38:42.025Z,9.05
2023-04-11T17:43:38.702Z,6.47
2023-04-11T17:46:07.316Z,5.03
2023-04-11T17:48:34.513Z,9.23
2023-04-11T17:51:04.151Z,3.58
2023-04-11T17:53:31.569Z,6.95
2023-04-11T17:56:03.299Z,6.15
2023-04-11T17:58:30.322Z,4.97
2023-04-11T18:00:57.419Z,7.25
2023-04-11T18:03:25.651Z,8.25
2023-04-11T18:05:54.233Z,8.30
2023-04-11T18:08:36.159Z,5.60
2023-04-11T18:11:09.737Z,6.60
2023-04-11T18:13:36.608Z,5.43
2023-04-11T18:16:04.114Z,8.23
2023-04-11T18:18:31.141Z,5.95
2023-04-11T18:21:07.307Z,5.72
2023-04-11T18:23:35.275Z,6.65
2023-04-11T18:26:02.215Z,6.28
2023-04-11T18:28:29.360Z,6.72
2023-04-11T18:30:56.692Z,4.88
2023-04-11T18:33:23.760Z,6.40
2023-04-11T18:35:50.618Z,14.38
2023-04-11T18:38:17.648Z,6.65
2023-04-11T18:40:44.515Z,5.55
2023-04-11T18:43:11.369Z,6.43
2023-04-11T18:45:39.435Z,8.40
2023-04-11T18:48:07.207Z,5.13
2023-04-11T18:50:39.365Z,5.28
2023-04-11T18:53:10.688Z,5.90
2023-04-11T18:55:40.147Z,8.07
2023-04-11T18:58:09.231Z,7.30
2023-04-11T19:00:38.868Z,6.55
2023-04-11T19:03:07.079Z,6.07
2023-04-11T19:05:34.727Z,5.63
2023-04-11T19:08:01.810Z,8.07
2023-04-11T19:10:28.672Z,8.80
2023-04-11T19:12:55.507Z,5.72
2023-04-11T19:15:22.563Z,9.85
2023-04-11T19:17:49.790Z,7.30
2023-04-11T19:20:17.716Z,4.03
2023-04-11T19:22:46.173Z,7.20
2023-04-11T19:25:13.209Z,6.35
2023-04-11T19:27:41.896Z,6.65
2023-04-11T19:30:11.092Z,7.72
2023-04-11T19:32:40.884Z,6.45
2023-04-11T19:35:10.688Z,6.32
2023-04-11T19:37:39.110Z,8.15
2023-04-11T19:40:07.840Z,7.75
2023-04-11T19:42:37.192Z,10.27
2023-04-11T19:45:05.083Z,10.25
2023-04-11T19:47:32.583Z,7.25
2023-04-11T19:50:00.665Z,6.03
2023-04-11T19:52:28.660Z,5.88
2023-04-11T19:54:56.582Z,9.45
2023-04-11T19:57:26.892Z,13.88
2023-04-11T19:59:53.850Z,9.75
2023-04-11T20:02:21.237Z,8.25
2023-04-11T20:04:49.595Z,6.13
2023-04-11T20:07:16.491Z,6.93
2023-04-11T20:09:43.463Z,6.93
2023-04-11T20:12:10.446Z,7.05
2023-04-11T20:14:38.229Z,5.88
2023-04-11T20:17:06.461Z,9.00
2023-04-11T20:19:33.407Z,6.03
2023-04-11T20:22:02.869Z,9.05
2023-04-11T20:24:29.697Z,8.88
2023-04-11T20:26:59.025Z,10.95
2023-04-11T20:31:57.425Z,8.45
2023-04-11T20:34:24.342Z,5.03
2023-04-11T20:36:51.151Z,7.28
2023-04-11T20:39:17.941Z,7.15
2023-04-11T20:41:45.350Z,6.93
2023-04-11T20:44:12.181Z,3.88
2023-04-11T20:46:39.731Z,8.13
2023-04-11T20:49:06.970Z,10.15
2023-04-11T20:51:34.536Z,4.60
2023-04-11T20:54:01.614Z,5.97
2023-04-11T20:56:35.083Z,7.80
2023-04-11T20:59:03.337Z,8.40
2023-04-11T21:01:34.665Z,9.77
2023-04-11T21:04:04.827Z,7.97
2023-04-11T21:06:32.484Z,7.80
2023-04-11T21:09:04.109Z,8.90
2023-04-11T21:11:31.563Z,7.50
2023-04-11T21:13:58.606Z,6.78
2023-04-11T21:16:25.668Z,12.75
2023-04-11T21:18:52.452Z,6.47
2023-04-11T21:21:19.278Z,5.47
2023-04-11T21:23:46.187Z,8.52
2023-04-11T21:26:12.936Z,5.53
2023-04-11T21:28:39.788Z,6.65
2023-04-11T21:31:06.829Z,5.90
2023-04-11T21:33:33.659Z,8.00
2023-04-11T21:36:00.565Z,7.93
2023-04-11T21:38:27.666Z,8.90
2023-04-11T21:40:56.561Z,5.75
2023-04-11T21:43:23.602Z,10.75
2023-04-11T21:45:50.438Z,8.88
2023-04-11T21:48:17.245Z,8.07
2023-04-11T21:50:45.353Z,5.65
2023-04-11T21:53:13.867Z,7.57
2023-04-11T21:55:47.224Z,7.95
2023-04-11T21:58:26.309Z,9.90
2023-04-11T22:00:56.418Z,10.15
2023-04-11T22:03:23.779Z,8.73
2023-04-11T22:05:52.247Z,8.18
2023-04-11T22:08:22.370Z,12.40
2023-04-11T22:10:50.544Z,5.45
2023-04-11T22:13:20.657Z,9.10
2023-04-11T22:15:58.380Z,8.68
2023-04-11T22:18:28.213Z,5.63
2023-04-11T22:20:55.025Z,6.10
2023-04-11T22:23:21.954Z,9.38
2023-04-11T22:25:57.765Z,7.22
2023-04-11T22:28:26.128Z,9.02
2023-04-11T22:30:53.941Z,8.18
2023-04-11T22:33:20.978Z,6.80
2023-04-11T22:35:47.859Z,5.22
2023-04-11T22:38:15.777Z,6.72
2023-04-11T22:40:42.879Z,7.55
2023-04-11T22:43:10.472Z,5.68
2023-04-11T22:45:37.448Z,6.22
2023-04-11T22:48:05.911Z,5.78
2023-04-11T22:50:37.136Z,8.02
2023-04-11T22:53:05.404Z,5.38
2023-04-11T22:55:34.179Z,6.03
2023-04-11T22:58:04.321Z,7.45
2023-04-11T23:00:37.931Z,10.50
2023-04-11T23:03:07.262Z,6.38
2023-04-11T23:05:37.761Z,5.30
2023-04-11T23:08:04.905Z,9.82
2023-04-11T23:10:32.200Z,8.38
2023-04-11T23:12:59.376Z,5.60
2023-04-11T23:15:26.537Z,6.65
2023-04-11T23:17:53.718Z,6.82
2023-04-11T23:20:21.967Z,6.40
2023-04-11T23:22:48.775Z,6.95
2023-04-11T23:25:15.599Z,6.68
2023-04-11T23:27:43.819Z,7.45
2023-04-11T23:30:12.062Z,8.13
2023-04-11T23:32:39.962Z,10.18
2023-04-11T23:35:08.448Z,7.43
2023-04-11T23:37:35.195Z,7.95
2023-04-11T23:40:10.746Z,5.97
2023-04-11T23:42:39.019Z,5.72
2023-04-11T23:45:10.668Z,9.35
2023-04-11T23:47:38.203Z,6.03
2023-04-11T23:50:05.662Z,6.35
2023-04-11T23:52:32.513Z,4.38
2023-04-11T23:54:59.449Z,8.48
2023-04-11T23:57:26.413Z,10.68
2023-04-11T23:59:53.627Z,4.93
